sensor_id;sensor_type;location;lat;lon;timestamp;temperature;humidity
31046;DHT22;17711;54.018;9.300;2022-10-16T00:00:17;13.90;99.90
31046;DHT22;17711;54.018;9.300;2022-10-16T00:02:47;13.90;99.90
31046;DHT22;17711;54.018;9.300;2022-10-16T00:05:17;13.90;99.90
31046;DHT22;17711;54.018;9.300;2022-10-16T00:07:51;13.90;99.90
31046;DHT22;17711;54.018;9.300;2022-10-16T00:10:25;13.90;99.90
31046;DHT22;17711;54.018;9.300;2022-10-16T00:12:54;13.90;99.90
31046;DHT22;17711;54.018;9.300;2022-10-16T00:15:26;13.90;99.90
31046;DHT22;17711;54.018;9.300;2022-10-16T00:17:56;13.90;99.90
31046;DHT22;17711;54.018;9.300;2022-10-16T00:20:25;13.90;99.90
31046;DHT22;17711;54.018;9.300;2022-10-16T00:23:00;13.90;99.90
31046;DHT22;17711;54.018;9.300;2022-10-16T00:25:31;13.90;99.90
31046;DHT22;17711;54.018;9.300;2022-10-16T00:28:01;13.80;99.90
31046;DHT22;17711;54.018;9.300;2022-10-16T00:30:30;13.80;99.90
31046;DHT22;17711;54.018;9.300;2022-10-16T00:33:01;13.90;99.90
31046;DHT22;17711;54.018;9.300;2022-10-16T00:35:31;13.80;99.90
31046;DHT22;17711;54.018;9.300;2022-10-16T00:38:01;13.80;99.90
31046;DHT22;17711;54.018;9.300;2022-10-16T00:40:31;13.80;99.90
31046;DHT22;17711;54.018;9.300;2022-10-16T00:43:04;13.80;99.90
31046;DHT22;17711;54.018;9.300;2022-10-16T00:45:34;13.80;99.90
31046;DHT22;17711;54.018;9.300;2022-10-16T00:48:12;13.90;99.90
31046;DHT22;17711;54.018;9.300;2022-10-16T00:50:43;13.90;99.90
31046;DHT22;17711;54.018;9.300;2022-10-16T00:53:16;13.90;99.90
31046;DHT22;17711;54.018;9.300;2022-10-16T00:55:47;13.90;99.90
31046;DHT22;17711;54.018;9.300;2022-10-16T00:58:18;13.80;99.90
31046;DHT22;17711;54.018;9.300;2022-10-16T01:00:50;13.90;99.90
31046;DHT22;17711;54.018;9.300;2022-10-16T01:03:26;13.80;99.90
31046;DHT22;17711;54.018;9.300;2022-10-16T01:06:28;13.80;99.90
31046;DHT22;17711;54.018;9.300;2022-10-16T01:09:19;13.90;99.90
31046;DHT22;17711;54.018;9.300;2022-10-16T01:12:03;13.80;99.90
31046;DHT22;17711;54.018;9.300;2022-10-16T01:14:40;13.90;99.90
31046;DHT22;17711;54.018;9.300;2022-10-16T01:17:12;13.90;99.90
31046;DHT22;17711;54.018;9.300;2022-10-16T01:20:00;13.90;99.90
31046;DHT22;17711;54.018;9.300;2022-10-16T01:23:02;13.90;99.90
31046;DHT22;17711;54.018;9.300;2022-10-16T01:26:05;13.90;99.90
31046;DHT22;17711;54.018;9.300;2022-10-16T01:28:47;13.90;99.90
31046;DHT22;17711;54.018;9.300;2022-10-16T01:31:22;13.90;99.90
31046;DHT22;17711;54.018;9.300;2022-10-16T01:33:55;13.90;99.90
31046;DHT22;17711;54.018;9.300;2022-10-16T01:36:28;13.80;99.90
31046;DHT22;17711;54.018;9.300;2022-10-16T01:39:04;13.90;99.90
31046;DHT22;17711;54.018;9.300;2022-10-16T01:41:38;13.80;99.90
31046;DHT22;17711;54.018;9.300;2022-10-16T01:44:11;13.80;99.90
31046;DHT22;17711;54.018;9.300;2022-10-16T01:46:47;13.80;99.90
31046;DHT22;17711;54.018;9.300;2022-10-16T01:49:19;13.80;99.90
31046;DHT22;17711;54.018;9.300;2022-10-16T01:51:53;13.80;99.90
31046;DHT22;17711;54.018;9.300;2022-10-16T01:54:28;13.80;99.90
31046;DHT22;17711;54.018;9.300;2022-10-16T01:57:02;13.80;99.90
31046;DHT22;17711;54.018;9.300;2022-10-16T01:59:42;13.90;99.90
31046;DHT22;17711;54.018;9.300;2022-10-16T02:02:15;13.80;99.90
31046;DHT22;17711;54.018;9.300;2022-10-16T02:04:49;13.80;99.90
31046;DHT22;17711;54.018;9.300;2022-10-16T02:07:23;13.80;99.90
31046;DHT22;17711;54.018;9.300;2022-10-16T02:09:53;13.80;99.90
31046;DHT22;17711;54.018;9.300;2022-10-16T02:12:28;13.80;99.90
31046;DHT22;17711;54.018;9.300;2022-10-16T02:15:04;13.80;99.90
31046;DHT22;17711;54.018;9.300;2022-10-16T02:17:33;13.80;99.90
31046;DHT22;17711;54.018;9.300;2022-10-16T02:20:05;13.80;99.90
31046;DHT22;17711;54.018;9.300;2022-10-16T02:22:36;13.80;99.90
31046;DHT22;17711;54.018;9.300;2022-10-16T02:25:10;13.80;99.90
31046;DHT22;17711;54.018;9.300;2022-10-16T02:27:43;13.80;99.90
31046;DHT22;17711;54.018;9.300;2022-10-16T02:30:25;13.70;99.90
31046;DHT22;17711;54.018;9.300;2022-10-16T02:32:59;13.70;99.90
31046;DHT22;17711;54.018;9.300;2022-10-16T02:35:29;13.60;99.90
31046;DHT22;17711;54.018;9.300;2022-10-16T02:38:00;13.50;99.90
31046;DHT22;17711;54.018;9.300;2022-10-16T02:40:32;13.50;99.90
31046;DHT22;17711;54.018;9.300;2022-10-16T02:43:05;13.40;99.90
31046;DHT22;17711;54.018;9.300;2022-10-16T02:45:41;13.30;99.90
31046;DHT22;17711;54.018;9.300;2022-10-16T02:48:11;13.30;99.90
31046;DHT22;17711;54.018;9.300;2022-10-16T02:50:41;13.10;99.90
31046;DHT22;17711;54.018;9.300;2022-10-16T02:53:10;13.00;99.90
31046;DHT22;17711;54.018;9.300;2022-10-16T02:55:40;13.00;99.90
31046;DHT22;17711;54.018;9.300;2022-10-16T02:58:11;13.00;99.90
31046;DHT22;17711;54.018;9.300;2022-10-16T03:00:48;13.00;99.90
31046;DHT22;17711;54.018;9.300;2022-10-16T03:03:21;13.00;99.90
31046;DHT22;17711;54.018;9.300;2022-10-16T03:05:51;12.90;99.90
31046;DHT22;17711;54.018;9.300;2022-10-16T03:08:35;12.80;99.90
31046;DHT22;17711;54.018;9.300;2022-10-16T03:11:06;12.80;99.90
31046;DHT22;17711;54.018;9.300;2022-10-16T03:13:38;12.80;99.90
31046;DHT22;17711;54.018;9.300;2022-10-16T03:16:10;12.70;99.90
31046;DHT22;17711;54.018;9.300;2022-10-16T03:18:42;12.80;99.90
31046;DHT22;17711;54.018;9.300;2022-10-16T03:21:12;12.80;99.90
31046;DHT22;17711;54.018;9.300;2022-10-16T03:23:43;12.80;99.90
31046;DHT22;17711;54.018;9.300;2022-10-16T03:26:13;12.80;99.90
31046;DHT22;17711;54.018;9.300;2022-10-16T03:28:42;12.90;99.90
31046;DHT22;17711;54.018;9.300;2022-10-16T03:31:14;12.80;99.90
31046;DHT22;17711;54.018;9.300;2022-10-16T03:33:45;12.90;99.90
31046;DHT22;17711;54.018;9.300;2022-10-16T03:36:15;12.80;99.90
31046;DHT22;17711;54.018;9.300;2022-10-16T03:38:45;12.90;99.90
31046;DHT22;17711;54.018;9.300;2022-10-16T03:41:17;12.90;99.90
31046;DHT22;17711;54.018;9.300;2022-10-16T03:43:48;12.90;99.90
31046;DHT22;17711;54.018;9.300;2022-10-16T03:46:19;13.00;99.90
31046;DHT22;17711;54.018;9.300;2022-10-16T03:48:53;13.00;99.90
31046;DHT22;17711;54.018;9.300;2022-10-16T03:51:36;13.00;99.90
31046;DHT22;17711;54.018;9.300;2022-10-16T03:54:05;13.10;99.90
31046;DHT22;17711;54.018;9.300;2022-10-16T03:56:35;13.10;99.90
31046;DHT22;17711;54.018;9.300;2022-10-16T03:59:07;13.20;99.90
31046;DHT22;17711;54.018;9.300;2022-10-16T04:01:37;13.30;99.90
31046;DHT22;17711;54.018;9.300;2022-10-16T04:04:12;13.30;99.90
31046;DHT22;17711;54.018;9.300;2022-10-16T04:06:42;13.40;99.90
31046;DHT22;17711;54.018;9.300;2022-10-16T04:09:12;13.40;99.90
31046;DHT22;17711;54.018;9.300;2022-10-16T04:11:41;13.40;99.90
31046;DHT22;17711;54.018;9.300;2022-10-16T04:14:11;13.50;99.90
31046;DHT22;17711;54.018;9.300;2022-10-16T04:16:47;13.50;99.90
31046;DHT22;17711;54.018;9.300;2022-10-16T04:19:19;13.60;99.90
31046;DHT22;17711;54.018;9.300;2022-10-16T04:21:50;13.50;99.90
31046;DHT22;17711;54.018;9.300;2022-10-16T04:24:20;13.60;99.90
31046;DHT22;17711;54.018;9.300;2022-10-16T04:26:50;13.60;99.90
31046;DHT22;17711;54.018;9.300;2022-10-16T04:29:19;13.60;99.90
31046;DHT22;17711;54.018;9.300;2022-10-16T04:31:51;13.60;99.90
31046;DHT22;17711;54.018;9.300;2022-10-16T04:34:36;13.50;99.90
31046;DHT22;17711;54.018;9.300;2022-10-16T04:37:07;13.60;99.90
31046;DHT22;17711;54.018;9.300;2022-10-16T04:39:39;13.60;99.90
31046;DHT22;17711;54.018;9.300;2022-10-16T04:42:16;13.70;99.90
31046;DHT22;17711;54.018;9.300;2022-10-16T04:44:47;13.70;99.90
31046;DHT22;17711;54.018;9.300;2022-10-16T04:47:24;13.60;99.90
31046;DHT22;17711;54.018;9.300;2022-10-16T04:49:58;13.70;99.90
31046;DHT22;17711;54.018;9.300;2022-10-16T04:52:31;13.70;99.90
31046;DHT22;17711;54.018;9.300;2022-10-16T04:55:02;13.70;99.90
31046;DHT22;17711;54.018;9.300;2022-10-16T04:57:35;13.70;99.90
31046;DHT22;17711;54.018;9.300;2022-10-16T05:00:04;13.70;99.90
31046;DHT22;17711;54.018;9.300;2022-10-16T05:02:36;13.70;99.90
31046;DHT22;17711;54.018;9.300;2022-10-16T05:05:06;13.70;99.90
31046;DHT22;17711;54.018;9.300;2022-10-16T05:07:36;13.70;99.90
31046;DHT22;17711;54.018;9.300;2022-10-16T05:10:06;13.60;99.90
31046;DHT22;17711;54.018;9.300;2022-10-16T05:12:36;13.60;99.90
31046;DHT22;17711;54.018;9.300;2022-10-16T05:15:09;13.60;99.90
31046;DHT22;17711;54.018;9.300;2022-10-16T05:17:39;13.60;99.90
31046;DHT22;17711;54.018;9.300;2022-10-16T05:20:12;13.50;99.90
31046;DHT22;17711;54.018;9.300;2022-10-16T05:22:40;13.50;99.90
31046;DHT22;17711;54.018;9.300;2022-10-16T05:25:10;13.50;99.90
31046;DHT22;17711;54.018;9.300;2022-10-16T05:27:42;13.40;99.90
31046;DHT22;17711;54.018;9.300;2022-10-16T05:30:11;13.40;99.90
31046;DHT22;17711;54.018;9.300;2022-10-16T05:32:46;13.40;99.90
31046;DHT22;17711;54.018;9.300;2022-10-16T05:35:18;13.40;99.90
31046;DHT22;17711;54.018;9.300;2022-10-16T05:37:48;13.40;99.90
31046;DHT22;17711;54.018;9.300;2022-10-16T05:40:20;13.50;99.90
31046;DHT22;17711;54.018;9.300;2022-10-16T05:42:54;13.50;99.90
31046;DHT22;17711;54.018;9.300;2022-10-16T05:45:26;13.50;99.90
31046;DHT22;17711;54.018;9.300;2022-10-16T05:48:03;13.50;99.90
31046;DHT22;17711;54.018;9.300;2022-10-16T05:50:33;13.50;99.90
31046;DHT22;17711;54.018;9.300;2022-10-16T05:53:01;13.50;99.90
31046;DHT22;17711;54.018;9.300;2022-10-16T05:55:31;13.50;99.90
31046;DHT22;17711;54.018;9.300;2022-10-16T05:58:00;13.60;99.90
31046;DHT22;17711;54.018;9.300;2022-10-16T06:00:30;13.60;99.90
31046;DHT22;17711;54.018;9.300;2022-10-16T06:03:01;13.50;99.90
31046;DHT22;17711;54.018;9.300;2022-10-16T06:05:30;13.50;99.90
31046;DHT22;17711;54.018;9.300;2022-10-16T06:07:59;13.40;99.90
31046;DHT22;17711;54.018;9.300;2022-10-16T06:10:29;13.40;99.90
31046;DHT22;17711;54.018;9.300;2022-10-16T06:13:00;13.40;99.90
31046;DHT22;17711;54.018;9.300;2022-10-16T06:15:30;13.40;99.90
31046;DHT22;17711;54.018;9.300;2022-10-16T06:18:00;13.50;99.90
31046;DHT22;17711;54.018;9.300;2022-10-16T06:20:32;13.40;99.90
31046;DHT22;17711;54.018;9.300;2022-10-16T06:23:01;13.50;99.90
31046;DHT22;17711;54.018;9.300;2022-10-16T06:25:32;13.50;99.90
31046;DHT22;17711;54.018;9.300;2022-10-16T06:28:01;13.50;99.90
31046;DHT22;17711;54.018;9.300;2022-10-16T06:30:30;13.60;99.90
31046;DHT22;17711;54.018;9.300;2022-10-16T06:33:01;13.60;99.90
31046;DHT22;17711;54.018;9.300;2022-10-16T06:35:31;13.60;99.90
31046;DHT22;17711;54.018;9.300;2022-10-16T06:38:01;13.60;99.90
31046;DHT22;17711;54.018;9.300;2022-10-16T06:40:32;13.60;99.90
31046;DHT22;17711;54.018;9.300;2022-10-16T06:43:02;13.60;99.90
31046;DHT22;17711;54.018;9.300;2022-10-16T06:45:31;13.70;99.90
31046;DHT22;17711;54.018;9.300;2022-10-16T06:48:02;13.70;99.90
31046;DHT22;17711;54.018;9.300;2022-10-16T06:50:32;13.70;99.90
31046;DHT22;17711;54.018;9.300;2022-10-16T06:53:04;13.70;99.90
31046;DHT22;17711;54.018;9.300;2022-10-16T06:55:33;13.70;99.90
31046;DHT22;17711;54.018;9.300;2022-10-16T06:58:02;13.80;99.90
31046;DHT22;17711;54.018;9.300;2022-10-16T07:00:32;13.80;99.90
31046;DHT22;17711;54.018;9.300;2022-10-16T07:03:03;13.80;99.90
31046;DHT22;17711;54.018;9.300;2022-10-16T07:05:36;13.80;99.90
31046;DHT22;17711;54.018;9.300;2022-10-16T07:08:06;13.70;99.90
31046;DHT22;17711;54.018;9.300;2022-10-16T07:10:35;13.70;99.90
31046;DHT22;17711;54.018;9.300;2022-10-16T07:13:05;13.80;99.90
31046;DHT22;17711;54.018;9.300;2022-10-16T07:15:36;13.80;99.90
31046;DHT22;17711;54.018;9.300;2022-10-16T07:18:09;13.90;99.90
31046;DHT22;17711;54.018;9.300;2022-10-16T07:20:38;14.10;99.90
31046;DHT22;17711;54.018;9.300;2022-10-16T07:23:08;14.30;99.90
31046;DHT22;17711;54.018;9.300;2022-10-16T07:25:42;14.40;99.90
31046;DHT22;17711;54.018;9.300;2022-10-16T07:28:14;14.50;99.90
31046;DHT22;17711;54.018;9.300;2022-10-16T07:30:44;14.60;99.90
31046;DHT22;17711;54.018;9.300;2022-10-16T07:33:16;14.60;99.90
31046;DHT22;17711;54.018;9.300;2022-10-16T07:35:50;14.70;99.90
31046;DHT22;17711;54.018;9.300;2022-10-16T07:38:22;14.70;99.90
31046;DHT22;17711;54.018;9.300;2022-10-16T07:40:56;14.70;99.90
31046;DHT22;17711;54.018;9.300;2022-10-16T07:43:29;14.60;99.90
31046;DHT22;17711;54.018;9.300;2022-10-16T07:46:04;14.60;99.90
31046;DHT22;17711;54.018;9.300;2022-10-16T07:48:34;14.50;99.90
31046;DHT22;17711;54.018;9.300;2022-10-16T07:51:07;14.60;99.90
31046;DHT22;17711;54.018;9.300;2022-10-16T07:53:36;14.80;99.90
31046;DHT22;17711;54.018;9.300;2022-10-16T07:56:07;14.80;99.90
31046;DHT22;17711;54.018;9.300;2022-10-16T07:58:37;15.00;99.90
31046;DHT22;17711;54.018;9.300;2022-10-16T08:01:09;15.20;99.90
31046;DHT22;17711;54.018;9.300;2022-10-16T08:03:44;15.40;99.90
31046;DHT22;17711;54.018;9.300;2022-10-16T08:06:15;15.30;99.90
31046;DHT22;17711;54.018;9.300;2022-10-16T08:08:48;15.20;99.90
31046;DHT22;17711;54.018;9.300;2022-10-16T08:11:18;15.10;99.90
31046;DHT22;17711;54.018;9.300;2022-10-16T08:13:48;15.10;99.90
31046;DHT22;17711;54.018;9.300;2022-10-16T08:16:18;15.10;99.90
31046;DHT22;17711;54.018;9.300;2022-10-16T08:18:51;15.20;99.90
31046;DHT22;17711;54.018;9.300;2022-10-16T08:21:22;15.30;99.90
31046;DHT22;17711;54.018;9.300;2022-10-16T08:23:54;15.20;99.90
31046;DHT22;17711;54.018;9.300;2022-10-16T08:26:26;15.30;99.90
31046;DHT22;17711;54.018;9.300;2022-10-16T08:28:55;15.30;99.90
31046;DHT22;17711;54.018;9.300;2022-10-16T08:31:28;15.30;99.90
31046;DHT22;17711;54.018;9.300;2022-10-16T08:34:00;15.30;99.90
31046;DHT22;17711;54.018;9.300;2022-10-16T08:36:30;15.30;99.90
31046;DHT22;17711;54.018;9.300;2022-10-16T08:39:00;15.40;99.90
31046;DHT22;17711;54.018;9.300;2022-10-16T08:42:02;15.50;99.90
31046;DHT22;17711;54.018;9.300;2022-10-16T08:45:15;15.60;99.90
31046;DHT22;17711;54.018;9.300;2022-10-16T08:47:58;15.80;99.90
31046;DHT22;17711;54.018;9.300;2022-10-16T08:50:37;16.00;99.90
31046;DHT22;17711;54.018;9.300;2022-10-16T08:53:16;16.20;99.90
31046;DHT22;17711;54.018;9.300;2022-10-16T08:55:50;16.20;99.90
31046;DHT22;17711;54.018;9.300;2022-10-16T08:58:27;16.20;99.90
31046;DHT22;17711;54.018;9.300;2022-10-16T09:00:59;16.40;99.90
31046;DHT22;17711;54.018;9.300;2022-10-16T09:03:43;16.60;99.90
31046;DHT22;17711;54.018;9.300;2022-10-16T09:06:43;16.80;99.90
31046;DHT22;17711;54.018;9.300;2022-10-16T09:09:30;17.10;99.90
31046;DHT22;17711;54.018;9.300;2022-10-16T09:12:05;17.20;99.90
31046;DHT22;17711;54.018;9.300;2022-10-16T09:14:54;17.20;99.90
31046;DHT22;17711;54.018;9.300;2022-10-16T09:17:32;17.30;99.90
31046;DHT22;17711;54.018;9.300;2022-10-16T09:20:35;17.20;99.90
31046;DHT22;17711;54.018;9.300;2022-10-16T09:23:17;17.10;99.90
31046;DHT22;17711;54.018;9.300;2022-10-16T09:25:54;17.00;99.90
31046;DHT22;17711;54.018;9.300;2022-10-16T09:28:26;17.00;99.90
31046;DHT22;17711;54.018;9.300;2022-10-16T09:30:58;16.90;99.90
31046;DHT22;17711;54.018;9.300;2022-10-16T09:33:33;17.00;99.90
31046;DHT22;17711;54.018;9.300;2022-10-16T09:36:05;17.20;99.90
31046;DHT22;17711;54.018;9.300;2022-10-16T09:38:36;17.20;99.90
31046;DHT22;17711;54.018;9.300;2022-10-16T09:41:16;17.00;99.90
31046;DHT22;17711;54.018;9.300;2022-10-16T09:43:54;17.00;99.90
31046;DHT22;17711;54.018;9.300;2022-10-16T09:46:29;17.10;99.90
31046;DHT22;17711;54.018;9.300;2022-10-16T09:49:02;17.40;99.90
31046;DHT22;17711;54.018;9.300;2022-10-16T09:51:35;18.00;99.90
31046;DHT22;17711;54.018;9.300;2022-10-16T09:54:17;18.50;99.90
31046;DHT22;17711;54.018;9.300;2022-10-16T09:56:48;18.70;99.90
31046;DHT22;17711;54.018;9.300;2022-10-16T09:59:22;19.10;99.90
31046;DHT22;17711;54.018;9.300;2022-10-16T10:01:55;19.10;99.90
31046;DHT22;17711;54.018;9.300;2022-10-16T10:04:38;19.40;99.90
31046;DHT22;17711;54.018;9.300;2022-10-16T10:07:17;19.50;99.90
31046;DHT22;17711;54.018;9.300;2022-10-16T10:09:54;19.80;99.90
31046;DHT22;17711;54.018;9.300;2022-10-16T10:12:27;20.90;99.90
31046;DHT22;17711;54.018;9.300;2022-10-16T10:15:04;22.30;99.90
31046;DHT22;17711;54.018;9.300;2022-10-16T10:17:46;23.30;99.90
31046;DHT22;17711;54.018;9.300;2022-10-16T10:20:24;24.30;99.90
31046;DHT22;17711;54.018;9.300;2022-10-16T10:22:56;24.50;97.40
31046;DHT22;17711;54.018;9.300;2022-10-16T10:25:50;25.60;92.40
31046;DHT22;17711;54.018;9.300;2022-10-16T10:28:53;26.70;87.80
31046;DHT22;17711;54.018;9.300;2022-10-16T10:31:31;25.90;72.50
31046;DHT22;17711;54.018;9.300;2022-10-16T10:34:26;25.00;83.60
31046;DHT22;17711;54.018;9.300;2022-10-16T10:37:02;24.60;90.80
31046;DHT22;17711;54.018;9.300;2022-10-16T10:39:42;25.00;96.00
31046;DHT22;17711;54.018;9.300;2022-10-16T10:42:24;26.00;77.40
31046;DHT22;17711;54.018;9.300;2022-10-16T10:45:19;25.80;75.10
31046;DHT22;17711;54.018;9.300;2022-10-16T10:48:01;24.60;78.00
31046;DHT22;17711;54.018;9.300;2022-10-16T10:50:39;23.20;93.00
31046;DHT22;17711;54.018;9.300;2022-10-16T10:53:24;22.20;99.90
31046;DHT22;17711;54.018;9.300;2022-10-16T10:55:59;21.80;99.90
31046;DHT22;17711;54.018;9.300;2022-10-16T10:59:01;21.40;99.90
31046;DHT22;17711;54.018;9.300;2022-10-16T11:01:40;20.70;99.90
31046;DHT22;17711;54.018;9.300;2022-10-16T11:04:56;20.40;99.90
31046;DHT22;17711;54.018;9.300;2022-10-16T11:07:33;21.20;99.90
31046;DHT22;17711;54.018;9.300;2022-10-16T11:10:13;22.80;99.90
31046;DHT22;17711;54.018;9.300;2022-10-16T11:12:50;23.80;99.90
31046;DHT22;17711;54.018;9.300;2022-10-16T11:15:29;24.80;85.50
31046;DHT22;17711;54.018;9.300;2022-10-16T11:18:06;25.70;73.50
31046;DHT22;17711;54.018;9.300;2022-10-16T11:20:40;26.80;72.10
31046;DHT22;17711;54.018;9.300;2022-10-16T11:23:17;27.70;62.60
31046;DHT22;17711;54.018;9.300;2022-10-16T11:25:51;28.10;55.00
31046;DHT22;17711;54.018;9.300;2022-10-16T11:28:25;28.00;53.50
31046;DHT22;17711;54.018;9.300;2022-10-16T11:31:07;27.50;56.70
31046;DHT22;17711;54.018;9.300;2022-10-16T11:33:41;27.20;55.90
31046;DHT22;17711;54.018;9.300;2022-10-16T11:36:16;27.40;55.10
31046;DHT22;17711;54.018;9.300;2022-10-16T11:38:53;27.20;55.60
31046;DHT22;17711;54.018;9.300;2022-10-16T11:41:29;27.00;53.30
31046;DHT22;17711;54.018;9.300;2022-10-16T11:44:16;26.70;55.00
31046;DHT22;17711;54.018;9.300;2022-10-16T11:46:58;25.60;57.70
31046;DHT22;17711;54.018;9.300;2022-10-16T11:49:59;24.60;61.90
31046;DHT22;17711;54.018;9.300;2022-10-16T11:52:36;24.00;67.80
31046;DHT22;17711;54.018;9.300;2022-10-16T11:55:15;23.30;79.00
31046;DHT22;17711;54.018;9.300;2022-10-16T11:57:49;23.20;90.20
31046;DHT22;17711;54.018;9.300;2022-10-16T12:00:24;23.60;86.80
31046;DHT22;17711;54.018;9.300;2022-10-16T12:03:02;23.70;79.10
31046;DHT22;17711;54.018;9.300;2022-10-16T12:05:52;22.90;91.80
31046;DHT22;17711;54.018;9.300;2022-10-16T12:08:21;22.30;92.50
31046;DHT22;17711;54.018;9.300;2022-10-16T12:11:05;21.90;99.90
31046;DHT22;17711;54.018;9.300;2022-10-16T12:13:39;21.50;99.90
31046;DHT22;17711;54.018;9.300;2022-10-16T12:16:22;21.10;99.90
31046;DHT22;17711;54.018;9.300;2022-10-16T12:19:13;20.80;99.90
31046;DHT22;17711;54.018;9.300;2022-10-16T12:21:44;20.40;99.90
31046;DHT22;17711;54.018;9.300;2022-10-16T12:24:50;20.10;99.90
31046;DHT22;17711;54.018;9.300;2022-10-16T12:27:25;20.00;99.90
31046;DHT22;17711;54.018;9.300;2022-10-16T12:30:00;19.90;99.90
31046;DHT22;17711;54.018;9.300;2022-10-16T12:32:36;19.70;99.90
31046;DHT22;17711;54.018;9.300;2022-10-16T12:35:21;19.80;99.90
31046;DHT22;17711;54.018;9.300;2022-10-16T12:37:52;19.90;99.90
31046;DHT22;17711;54.018;9.300;2022-10-16T12:40:28;19.60;99.90
31046;DHT22;17711;54.018;9.300;2022-10-16T12:43:12;19.50;99.90
31046;DHT22;17711;54.018;9.300;2022-10-16T12:45:44;20.00;99.90
31046;DHT22;17711;54.018;9.300;2022-10-16T12:48:23;20.20;99.90
31046;DHT22;17711;54.018;9.300;2022-10-16T12:51:33;19.90;99.90
31046;DHT22;17711;54.018;9.300;2022-10-16T12:54:11;20.00;99.90
31046;DHT22;17711;54.018;9.300;2022-10-16T12:56:54;20.30;99.90
31046;DHT22;17711;54.018;9.300;2022-10-16T12:59:38;20.50;99.90
31046;DHT22;17711;54.018;9.300;2022-10-16T13:05:40;20.20;99.90
31046;DHT22;17711;54.018;9.300;2022-10-16T13:08:35;19.90;99.90
31046;DHT22;17711;54.018;9.300;2022-10-16T13:11:16;19.90;99.90
31046;DHT22;17711;54.018;9.300;2022-10-16T13:14:07;20.80;99.90
31046;DHT22;17711;54.018;9.300;2022-10-16T13:16:50;21.70;99.90
31046;DHT22;17711;54.018;9.300;2022-10-16T13:19:29;22.20;99.90
31046;DHT22;17711;54.018;9.300;2022-10-16T13:22:05;23.20;79.50
31046;DHT22;17711;54.018;9.300;2022-10-16T13:24:54;23.20;78.30
31046;DHT22;17711;54.018;9.300;2022-10-16T13:27:36;23.60;72.20
31046;DHT22;17711;54.018;9.300;2022-10-16T13:30:15;24.30;70.20
31046;DHT22;17711;54.018;9.300;2022-10-16T13:33:02;24.70;63.40
31046;DHT22;17711;54.018;9.300;2022-10-16T13:35:35;24.60;64.10
31046;DHT22;17711;54.018;9.300;2022-10-16T13:38:12;24.60;69.60
31046;DHT22;17711;54.018;9.300;2022-10-16T13:40:53;24.20;66.30
31046;DHT22;17711;54.018;9.300;2022-10-16T13:43:29;23.60;65.60
31046;DHT22;17711;54.018;9.300;2022-10-16T13:46:13;22.80;77.50
31046;DHT22;17711;54.018;9.300;2022-10-16T13:48:44;22.20;77.20
31046;DHT22;17711;54.018;9.300;2022-10-16T13:51:16;21.70;84.50
31046;DHT22;17711;54.018;9.300;2022-10-16T13:53:47;21.20;94.60
31046;DHT22;17711;54.018;9.300;2022-10-16T13:56:21;21.00;99.90
31046;DHT22;17711;54.018;9.300;2022-10-16T13:59:01;20.70;99.90
31046;DHT22;17711;54.018;9.300;2022-10-16T14:01:33;20.50;99.90
31046;DHT22;17711;54.018;9.300;2022-10-16T14:04:06;20.30;99.90
31046;DHT22;17711;54.018;9.300;2022-10-16T14:06:41;20.20;99.90
31046;DHT22;17711;54.018;9.300;2022-10-16T14:09:22;20.00;99.90
31046;DHT22;17711;54.018;9.300;2022-10-16T14:11:58;19.80;99.90
31046;DHT22;17711;54.018;9.300;2022-10-16T14:14:35;19.70;99.90
31046;DHT22;17711;54.018;9.300;2022-10-16T14:17:15;19.50;99.90
31046;DHT22;17711;54.018;9.300;2022-10-16T14:19:50;19.50;99.90
31046;DHT22;17711;54.018;9.300;2022-10-16T14:22:32;19.40;99.90
31046;DHT22;17711;54.018;9.300;2022-10-16T14:25:01;19.50;99.90
31046;DHT22;17711;54.018;9.300;2022-10-16T14:27:58;19.50;99.90
31046;DHT22;17711;54.018;9.300;2022-10-16T14:30:55;19.40;99.90
31046;DHT22;17711;54.018;9.300;2022-10-16T14:33:32;19.00;99.90
31046;DHT22;17711;54.018;9.300;2022-10-16T14:36:06;18.90;99.90
31046;DHT22;17711;54.018;9.300;2022-10-16T14:38:43;18.80;99.90
31046;DHT22;17711;54.018;9.300;2022-10-16T14:41:21;18.60;99.90
31046;DHT22;17711;54.018;9.300;2022-10-16T14:44:00;18.60;99.90
31046;DHT22;17711;54.018;9.300;2022-10-16T14:46:35;18.70;99.90
31046;DHT22;17711;54.018;9.300;2022-10-16T14:49:15;18.70;99.90
31046;DHT22;17711;54.018;9.300;2022-10-16T14:51:48;18.70;99.90
31046;DHT22;17711;54.018;9.300;2022-10-16T14:54:18;18.50;99.90
31046;DHT22;17711;54.018;9.300;2022-10-16T14:56:54;18.40;99.90
31046;DHT22;17711;54.018;9.300;2022-10-16T14:59:28;18.30;99.90
31046;DHT22;17711;54.018;9.300;2022-10-16T15:02:09;18.30;99.90
31046;DHT22;17711;54.018;9.300;2022-10-16T15:04:48;18.20;99.90
31046;DHT22;17711;54.018;9.300;2022-10-16T15:07:19;18.20;99.90
31046;DHT22;17711;54.018;9.300;2022-10-16T15:09:48;18.10;99.90
31046;DHT22;17711;54.018;9.300;2022-10-16T15:12:21;17.90;99.90
31046;DHT22;17711;54.018;9.300;2022-10-16T15:14:53;17.80;99.90
31046;DHT22;17711;54.018;9.300;2022-10-16T15:17:22;17.80;99.90
31046;DHT22;17711;54.018;9.300;2022-10-16T15:19:53;17.70;99.90
31046;DHT22;17711;54.018;9.300;2022-10-16T15:22:26;17.70;99.90
31046;DHT22;17711;54.018;9.300;2022-10-16T15:24:56;17.60;99.90
31046;DHT22;17711;54.018;9.300;2022-10-16T15:27:26;17.60;99.90
31046;DHT22;17711;54.018;9.300;2022-10-16T15:29:57;17.60;99.90
31046;DHT22;17711;54.018;9.300;2022-10-16T15:32:27;17.60;99.90
31046;DHT22;17711;54.018;9.300;2022-10-16T15:34:58;17.50;99.90
31046;DHT22;17711;54.018;9.300;2022-10-16T15:37:28;17.40;99.90
31046;DHT22;17711;54.018;9.300;2022-10-16T15:39:58;17.30;99.90
31046;DHT22;17711;54.018;9.300;2022-10-16T15:42:27;17.30;99.90
31046;DHT22;17711;54.018;9.300;2022-10-16T15:44:59;17.20;99.90
31046;DHT22;17711;54.018;9.300;2022-10-16T15:47:28;17.00;99.90
31046;DHT22;17711;54.018;9.300;2022-10-16T15:50:00;17.00;99.90
31046;DHT22;17711;54.018;9.300;2022-10-16T15:52:30;16.80;99.90
31046;DHT22;17711;54.018;9.300;2022-10-16T15:55:01;16.70;99.90
31046;DHT22;17711;54.018;9.300;2022-10-16T15:57:32;16.60;99.90
31046;DHT22;17711;54.018;9.300;2022-10-16T16:00:06;16.40;99.90
31046;DHT22;17711;54.018;9.300;2022-10-16T16:02:38;16.30;99.90
31046;DHT22;17711;54.018;9.300;2022-10-16T16:05:11;16.30;99.90
31046;DHT22;17711;54.018;9.300;2022-10-16T16:07:41;16.20;99.90
31046;DHT22;17711;54.018;9.300;2022-10-16T16:10:12;16.10;99.90
31046;DHT22;17711;54.018;9.300;2022-10-16T16:12:47;16.00;99.90
31046;DHT22;17711;54.018;9.300;2022-10-16T16:15:23;15.90;99.90
31046;DHT22;17711;54.018;9.300;2022-10-16T16:18:06;15.80;99.90
31046;DHT22;17711;54.018;9.300;2022-10-16T16:20:39;15.80;99.90
31046;DHT22;17711;54.018;9.300;2022-10-16T16:23:13;15.70;99.90